AVA151 SBSV-SBGL
Flight info
| Callsign | AVA151 |
|---|---|
| Flight time | 1h 36m |
| Altitude | 34000 |
| Route | IRUMI UN857 MOLSU |
| Aircraft | A320/M-SDE3FGHIRWY/LB1 |
Departure
| Time | 2026-04-28 21:08 |
|---|---|
| Airport | Deputado Luiz Eduardo Magalhães International Airport (SBSV) |
Arrival
| Time | 2026-04-28 22:45 |
|---|---|
| Airport | Rio Galeão – Tom Jobim International Airport (SBGL) |
| Time | Latitude | Longitude | Altitude | Speed | Heading |
|---|---|---|---|---|---|
| 2026-04-28 20:59 | -12.91342 | -38.33268 | 26 ft | 0 kts | 168° |
| 2026-04-28 21:04 | -12.91336 | -38.33270 | 26 ft | 4 kts | 169° |
| 2026-04-28 21:04 | -12.91310 | -38.33272 | 30 ft | 4 kts | 187° |
| 2026-04-28 21:04 | -12.91286 | -38.33264 | 29 ft | 4 kts | 228° |
| 2026-04-28 21:04 | -12.91279 | -38.33253 | 29 ft | 0 kts | 257° |
| 2026-04-28 21:06 | -12.91273 | -38.33301 | 28 ft | 12 kts | 307° |
| 2026-04-28 21:06 | -12.91213 | -38.33349 | 25 ft | 12 kts | 305° |
| 2026-04-28 21:07 | -12.91181 | -38.33411 | 25 ft | 15 kts | 297° |
| 2026-04-28 21:07 | -12.91089 | -38.33411 | 22 ft | 17 kts | 67° |
| 2026-04-28 21:07 | -12.91036 | -38.33153 | 26 ft | 61 kts | 78° |
| 2026-04-28 21:07 | -12.90909 | -38.32514 | 38 ft | 120 kts | 78° |
| 2026-04-28 21:08 | -12.90708 | -38.31503 | 57 ft | 166 kts | 79° |
| 2026-04-28 21:08 | -12.90553 | -38.30717 | 413 ft | 166 kts | 80° |
| 2026-04-28 21:08 | -12.90317 | -38.29549 | 1023 ft | 169 kts | 80° |
| 2026-04-28 21:08 | -12.90084 | -38.28369 | 1687 ft | 168 kts | 82° |
| 2026-04-28 21:09 | -12.89991 | -38.27126 | 1972 ft | 186 kts | 108° |
| 2026-04-28 21:09 | -12.90737 | -38.26031 | 2206 ft | 204 kts | 144° |
| 2026-04-28 21:09 | -12.92142 | -38.25533 | 2480 ft | 226 kts | 168° |
| 2026-04-28 21:09 | -12.93762 | -38.25224 | 2870 ft | 248 kts | 167° |
| 2026-04-28 21:10 | -12.95495 | -38.24860 | 3472 ft | 258 kts | 166° |
| 2026-04-28 21:10 | -12.97272 | -38.24484 | 4254 ft | 264 kts | 169° |
| 2026-04-28 21:10 | -12.99127 | -38.24551 | 4990 ft | 274 kts | 194° |
| 2026-04-28 21:10 | -13.00922 | -38.25255 | 5760 ft | 279 kts | 200° |
| 2026-04-28 21:11 | -13.02724 | -38.26026 | 6513 ft | 283 kts | 201° |
| 2026-04-28 21:11 | -13.04554 | -38.26814 | 7204 ft | 287 kts | 201° |
| 2026-04-28 21:11 | -13.06408 | -38.27612 | 7934 ft | 290 kts | 201° |
| 2026-04-28 21:11 | -13.08278 | -38.28414 | 8666 ft | 293 kts | 202° |
| 2026-04-28 21:12 | -13.10166 | -38.29223 | 9384 ft | 295 kts | 202° |
| 2026-04-28 21:12 | -13.12072 | -38.30037 | 10071 ft | 298 kts | 202° |
| 2026-04-28 21:12 | -13.14040 | -38.30873 | 10348 ft | 317 kts | 202° |
| 2026-04-28 21:12 | -13.16148 | -38.31771 | 10472 ft | 339 kts | 202° |
| 2026-04-28 21:13 | -13.18395 | -38.32729 | 10594 ft | 359 kts | 202° |
| 2026-04-28 21:13 | -13.20762 | -38.33739 | 10766 ft | 376 kts | 202° |
| 2026-04-28 21:13 | -13.23201 | -38.34782 | 11197 ft | 383 kts | 201° |
| 2026-04-28 21:13 | -13.25673 | -38.35839 | 11692 ft | 387 kts | 201° |
| 2026-04-28 21:14 | -13.28172 | -38.36908 | 12211 ft | 391 kts | 201° |
| 2026-04-28 21:14 | -13.30691 | -38.37987 | 12743 ft | 394 kts | 201° |
| 2026-04-28 21:14 | -13.33232 | -38.39073 | 13267 ft | 397 kts | 201° |
| 2026-04-28 21:14 | -13.35792 | -38.40168 | 13782 ft | 400 kts | 200° |
| 2026-04-28 21:15 | -13.38372 | -38.41272 | 14224 ft | 404 kts | 200° |
| 2026-04-28 21:15 | -13.40975 | -38.42387 | 14657 ft | 407 kts | 200° |
| 2026-04-28 21:15 | -13.43600 | -38.43511 | 15092 ft | 411 kts | 200° |
| 2026-04-28 21:15 | -13.46246 | -38.44643 | 15516 ft | 414 kts | 200° |
| 2026-04-28 21:16 | -13.48916 | -38.45785 | 15940 ft | 417 kts | 200° |
| 2026-04-28 21:16 | -13.51608 | -38.46934 | 16366 ft | 420 kts | 200° |
| 2026-04-28 21:16 | -13.54318 | -38.48093 | 16786 ft | 424 kts | 201° |
| 2026-04-28 21:16 | -13.57052 | -38.49265 | 17206 ft | 427 kts | 201° |
| 2026-04-28 21:17 | -13.59801 | -38.50444 | 17620 ft | 430 kts | 201° |
| 2026-04-28 21:17 | -13.62571 | -38.51633 | 18019 ft | 433 kts | 201° |
| 2026-04-28 21:17 | -13.65364 | -38.52830 | 18394 ft | 436 kts | 201° |
| 2026-04-28 21:17 | -13.68176 | -38.54034 | 18731 ft | 439 kts | 200° |
| 2026-04-28 21:18 | -13.71004 | -38.55245 | 19071 ft | 441 kts | 200° |
| 2026-04-28 21:18 | -13.73845 | -38.56464 | 19422 ft | 443 kts | 200° |
| 2026-04-28 21:18 | -13.76700 | -38.57690 | 19753 ft | 446 kts | 201° |
| 2026-04-28 21:18 | -13.79569 | -38.58922 | 20081 ft | 448 kts | 201° |
| 2026-04-28 21:19 | -13.82452 | -38.60160 | 20413 ft | 450 kts | 200° |
| 2026-04-28 21:19 | -13.85350 | -38.61407 | 20737 ft | 452 kts | 200° |
| 2026-04-28 21:19 | -13.88261 | -38.62660 | 21051 ft | 454 kts | 200° |
| 2026-04-28 21:19 | -13.91185 | -38.63917 | 21360 ft | 457 kts | 200° |
| 2026-04-28 21:20 | -13.94084 | -38.65164 | 21661 ft | 459 kts | 200° |
| 2026-04-28 21:20 | -13.97035 | -38.66432 | 21962 ft | 461 kts | 200° |
| 2026-04-28 21:20 | -14.00002 | -38.67707 | 22244 ft | 463 kts | 200° |
| 2026-04-28 21:20 | -14.02989 | -38.68991 | 22524 ft | 466 kts | 200° |
| 2026-04-28 21:21 | -14.05985 | -38.70281 | 22797 ft | 468 kts | 200° |
| 2026-04-28 21:21 | -14.08993 | -38.71578 | 23070 ft | 470 kts | 200° |
| 2026-04-28 21:21 | -14.12017 | -38.72882 | 23335 ft | 472 kts | 200° |
| 2026-04-28 21:21 | -14.15048 | -38.74192 | 23593 ft | 474 kts | 200° |
| 2026-04-28 21:22 | -14.18091 | -38.75505 | 23813 ft | 475 kts | 200° |
| 2026-04-28 21:22 | -14.21148 | -38.76820 | 24042 ft | 476 kts | 200° |
| 2026-04-28 21:22 | -14.24207 | -38.78134 | 24277 ft | 477 kts | 200° |
| 2026-04-28 21:22 | -14.27272 | -38.79453 | 24510 ft | 478 kts | 200° |
| 2026-04-28 21:23 | -14.30339 | -38.80774 | 24736 ft | 478 kts | 201° |
| 2026-04-28 21:23 | -14.33411 | -38.82101 | 24966 ft | 479 kts | 201° |
| 2026-04-28 21:23 | -14.36486 | -38.83430 | 25190 ft | 480 kts | 201° |
| 2026-04-28 21:23 | -14.39569 | -38.84761 | 25415 ft | 480 kts | 201° |
| 2026-04-28 21:24 | -14.42652 | -38.86092 | 25628 ft | 481 kts | 201° |
| 2026-04-28 21:24 | -14.45740 | -38.87426 | 25839 ft | 482 kts | 201° |
| 2026-04-28 21:24 | -14.48835 | -38.88760 | 26047 ft | 482 kts | 201° |
| 2026-04-28 21:24 | -14.51933 | -38.90098 | 26253 ft | 483 kts | 201° |
| 2026-04-28 21:25 | -14.55037 | -38.91439 | 26442 ft | 484 kts | 201° |
| 2026-04-28 21:25 | -14.58143 | -38.92781 | 26632 ft | 484 kts | 201° |
| 2026-04-28 21:25 | -14.61254 | -38.94132 | 26819 ft | 485 kts | 201° |
| 2026-04-28 21:25 | -14.64366 | -38.95484 | 26999 ft | 486 kts | 201° |
| 2026-04-28 21:26 | -14.67485 | -38.96835 | 27174 ft | 486 kts | 201° |
| 2026-04-28 21:26 | -14.70598 | -38.98185 | 27415 ft | 485 kts | 201° |
| 2026-04-28 21:26 | -14.73702 | -38.99527 | 27668 ft | 483 kts | 201° |
| 2026-04-28 21:26 | -14.76801 | -39.00871 | 27915 ft | 482 kts | 201° |
| 2026-04-28 21:27 | -14.79885 | -39.02209 | 28180 ft | 480 kts | 201° |
| 2026-04-28 21:27 | -14.82965 | -39.03545 | 28439 ft | 479 kts | 201° |
| 2026-04-28 21:27 | -14.86035 | -39.04874 | 28712 ft | 478 kts | 201° |
| 2026-04-28 21:27 | -14.89098 | -39.06199 | 28986 ft | 476 kts | 201° |
| 2026-04-28 21:28 | -14.92149 | -39.07524 | 29264 ft | 475 kts | 201° |
| 2026-04-28 21:28 | -14.95149 | -39.08829 | 29541 ft | 474 kts | 201° |
| 2026-04-28 21:28 | -14.98186 | -39.10149 | 29827 ft | 472 kts | 201° |
| 2026-04-28 21:28 | -15.01211 | -39.11462 | 30118 ft | 471 kts | 201° |
| 2026-04-28 21:29 | -15.04226 | -39.12770 | 30357 ft | 470 kts | 202° |
| 2026-04-28 21:29 | -15.07234 | -39.14076 | 30598 ft | 469 kts | 202° |
| 2026-04-28 21:29 | -15.10241 | -39.15383 | 30830 ft | 468 kts | 202° |
| 2026-04-28 21:29 | -15.13239 | -39.16687 | 31057 ft | 467 kts | 202° |
| 2026-04-28 21:30 | -15.16237 | -39.17991 | 31278 ft | 467 kts | 202° |
| 2026-04-28 21:30 | -15.19230 | -39.19295 | 31517 ft | 466 kts | 202° |
| 2026-04-28 21:30 | -15.22213 | -39.20598 | 31759 ft | 465 kts | 202° |
| 2026-04-28 21:30 | -15.25194 | -39.21900 | 31995 ft | 465 kts | 202° |
| 2026-04-28 21:31 | -15.28170 | -39.23198 | 32234 ft | 464 kts | 202° |
| 2026-04-28 21:31 | -15.31142 | -39.24494 | 32483 ft | 463 kts | 202° |
| 2026-04-28 21:31 | -15.34112 | -39.25786 | 32719 ft | 463 kts | 202° |
| 2026-04-28 21:31 | -15.37079 | -39.27074 | 32954 ft | 462 kts | 202° |
| 2026-04-28 21:32 | -15.40044 | -39.28361 | 33212 ft | 461 kts | 202° |
| 2026-04-28 21:32 | -15.43000 | -39.29645 | 33460 ft | 461 kts | 202° |
| 2026-04-28 21:32 | -15.45954 | -39.30933 | 33700 ft | 460 kts | 202° |
| 2026-04-28 21:32 | -15.48897 | -39.32222 | 33947 ft | 460 kts | 202° |
| 2026-04-28 21:33 | -15.54803 | -39.34808 | 34061 ft | 462 kts | 202° |
| 2026-04-28 21:33 | -15.60743 | -39.37409 | 34060 ft | 464 kts | 203° |
| 2026-04-28 21:34 | -15.66689 | -39.40014 | 34063 ft | 464 kts | 202° |
| 2026-04-28 21:34 | -15.72641 | -39.42616 | 34062 ft | 464 kts | 203° |
| 2026-04-28 21:35 | -15.78591 | -39.45222 | 34064 ft | 464 kts | 202° |
| 2026-04-28 21:35 | -15.84545 | -39.47830 | 34068 ft | 464 kts | 203° |
| 2026-04-28 21:36 | -15.90500 | -39.50437 | 34066 ft | 464 kts | 203° |
| 2026-04-28 21:36 | -15.96452 | -39.53047 | 34070 ft | 464 kts | 203° |
| 2026-04-28 21:37 | -16.02367 | -39.55646 | 34070 ft | 464 kts | 203° |
| 2026-04-28 21:37 | -16.08321 | -39.58253 | 34075 ft | 465 kts | 203° |
| 2026-04-28 21:38 | -16.14273 | -39.60870 | 34074 ft | 464 kts | 203° |
| 2026-04-28 21:38 | -16.20221 | -39.63491 | 34073 ft | 464 kts | 203° |
| 2026-04-28 21:39 | -16.26172 | -39.66120 | 34079 ft | 464 kts | 203° |
| 2026-04-28 21:39 | -16.32123 | -39.68747 | 34080 ft | 465 kts | 203° |
| 2026-04-28 21:40 | -16.38079 | -39.71363 | 34083 ft | 465 kts | 203° |
| 2026-04-28 21:40 | -16.44037 | -39.73983 | 34084 ft | 465 kts | 204° |
| 2026-04-28 21:41 | -16.49994 | -39.76612 | 34086 ft | 465 kts | 204° |
| 2026-04-28 21:41 | -16.55948 | -39.79245 | 34088 ft | 465 kts | 204° |
| 2026-04-28 21:42 | -16.61907 | -39.81879 | 34089 ft | 465 kts | 204° |
| 2026-04-28 21:42 | -16.67867 | -39.84518 | 34089 ft | 465 kts | 204° |
| 2026-04-28 21:43 | -16.73829 | -39.87158 | 34091 ft | 465 kts | 204° |
| 2026-04-28 21:43 | -16.79793 | -39.89793 | 34091 ft | 466 kts | 204° |
| 2026-04-28 21:44 | -16.85759 | -39.92433 | 34088 ft | 466 kts | 204° |
| 2026-04-28 21:44 | -16.91723 | -39.95082 | 34094 ft | 466 kts | 204° |
| 2026-04-28 21:45 | -16.97689 | -39.97728 | 34090 ft | 466 kts | 203° |
| 2026-04-28 21:45 | -17.03660 | -40.00375 | 34095 ft | 466 kts | 203° |
| 2026-04-28 21:46 | -17.09631 | -40.03033 | 34091 ft | 467 kts | 204° |
| 2026-04-28 21:46 | -17.15609 | -40.05697 | 34091 ft | 467 kts | 204° |
| 2026-04-28 21:47 | -17.21589 | -40.08363 | 34086 ft | 467 kts | 204° |
| 2026-04-28 21:47 | -17.27576 | -40.11035 | 34085 ft | 468 kts | 204° |
| 2026-04-28 21:48 | -17.33562 | -40.13701 | 34080 ft | 468 kts | 204° |
| 2026-04-28 21:48 | -17.39557 | -40.16366 | 34080 ft | 468 kts | 204° |
| 2026-04-28 21:49 | -17.45505 | -40.19015 | 34083 ft | 468 kts | 204° |
| 2026-04-28 21:49 | -17.51494 | -40.21688 | 34082 ft | 468 kts | 204° |
| 2026-04-28 21:50 | -17.57488 | -40.24363 | 34080 ft | 468 kts | 204° |
| 2026-04-28 21:50 | -17.63479 | -40.27046 | 34078 ft | 468 kts | 204° |
| 2026-04-28 21:51 | -17.69477 | -40.29727 | 34077 ft | 468 kts | 204° |
| 2026-04-28 21:51 | -17.75473 | -40.32410 | 34076 ft | 469 kts | 204° |
| 2026-04-28 21:52 | -17.81467 | -40.35097 | 34079 ft | 468 kts | 204° |
| 2026-04-28 21:52 | -17.87460 | -40.37797 | 34078 ft | 468 kts | 204° |
| 2026-04-28 21:53 | -17.93451 | -40.40485 | 34075 ft | 468 kts | 204° |
| 2026-04-28 21:53 | -17.99450 | -40.43167 | 34081 ft | 468 kts | 204° |
| 2026-04-28 21:54 | -18.05441 | -40.45861 | 34080 ft | 468 kts | 204° |
| 2026-04-28 21:54 | -18.11427 | -40.48559 | 34079 ft | 468 kts | 204° |
| 2026-04-28 21:55 | -18.16407 | -40.50800 | 34073 ft | 468 kts | 205° |
| 2026-04-28 21:55 | -18.22398 | -40.53504 | 34076 ft | 468 kts | 204° |
| 2026-04-28 21:56 | -18.28389 | -40.56204 | 34076 ft | 468 kts | 205° |
| 2026-04-28 21:56 | -18.34383 | -40.58906 | 34075 ft | 469 kts | 205° |
| 2026-04-28 21:57 | -18.40378 | -40.61612 | 34076 ft | 469 kts | 205° |
| 2026-04-28 21:57 | -18.46366 | -40.64321 | 34084 ft | 469 kts | 205° |
| 2026-04-28 21:58 | -18.52360 | -40.67036 | 34082 ft | 469 kts | 205° |
| 2026-04-28 21:58 | -18.58356 | -40.69751 | 34083 ft | 469 kts | 205° |
| 2026-04-28 21:59 | -18.64309 | -40.72438 | 34079 ft | 469 kts | 205° |
| 2026-04-28 22:00 | -18.73295 | -40.76496 | 34073 ft | 468 kts | 205° |
| 2026-04-28 22:00 | -18.79281 | -40.79212 | 34071 ft | 469 kts | 205° |
| 2026-04-28 22:01 | -18.85275 | -40.81940 | 34071 ft | 469 kts | 205° |
| 2026-04-28 22:01 | -18.91260 | -40.84677 | 34067 ft | 469 kts | 205° |
| 2026-04-28 22:02 | -18.97256 | -40.87409 | 34075 ft | 469 kts | 205° |
| 2026-04-28 22:02 | -19.03259 | -40.90135 | 34078 ft | 470 kts | 205° |
| 2026-04-28 22:03 | -19.09259 | -40.92864 | 34077 ft | 470 kts | 205° |
| 2026-04-28 22:03 | -19.15262 | -40.95597 | 34074 ft | 470 kts | 205° |
| 2026-04-28 22:04 | -19.21268 | -40.98341 | 34067 ft | 470 kts | 205° |
| 2026-04-28 22:04 | -19.27276 | -41.01082 | 34069 ft | 470 kts | 205° |
| 2026-04-28 22:05 | -19.33283 | -41.03828 | 34076 ft | 470 kts | 205° |
| 2026-04-28 22:05 | -19.39295 | -41.06582 | 34087 ft | 471 kts | 205° |
| 2026-04-28 22:06 | -19.45266 | -41.09309 | 34080 ft | 471 kts | 205° |
| 2026-04-28 22:06 | -19.51274 | -41.12070 | 34082 ft | 471 kts | 205° |
| 2026-04-28 22:07 | -19.57289 | -41.14823 | 34091 ft | 471 kts | 205° |
| 2026-04-28 22:07 | -19.63305 | -41.17581 | 34087 ft | 471 kts | 205° |
| 2026-04-28 22:08 | -19.69320 | -41.20337 | 34093 ft | 471 kts | 205° |
| 2026-04-28 22:08 | -19.75335 | -41.23098 | 34101 ft | 471 kts | 205° |
| 2026-04-28 22:09 | -19.81341 | -41.25878 | 34101 ft | 471 kts | 205° |
| 2026-04-28 22:09 | -19.87357 | -41.28639 | 34104 ft | 471 kts | 205° |
| 2026-04-28 22:10 | -19.93365 | -41.31400 | 34117 ft | 470 kts | 205° |
| 2026-04-28 22:10 | -19.99370 | -41.34165 | 34116 ft | 470 kts | 205° |
| 2026-04-28 22:11 | -20.05365 | -41.36942 | 34122 ft | 470 kts | 205° |
| 2026-04-28 22:11 | -20.11350 | -41.39719 | 34133 ft | 469 kts | 206° |
| 2026-04-28 22:12 | -20.17329 | -41.42484 | 34132 ft | 468 kts | 205° |
| 2026-04-28 22:12 | -20.23308 | -41.45240 | 34130 ft | 468 kts | 206° |
| 2026-04-28 22:13 | -20.29239 | -41.47986 | 34130 ft | 468 kts | 206° |
| 2026-04-28 22:13 | -20.35203 | -41.50747 | 34132 ft | 467 kts | 206° |
| 2026-04-28 22:14 | -20.41152 | -41.53510 | 34133 ft | 466 kts | 206° |
| 2026-04-28 22:14 | -20.47093 | -41.56269 | 34132 ft | 466 kts | 206° |
| 2026-04-28 22:15 | -20.53031 | -41.59022 | 34134 ft | 465 kts | 206° |
| 2026-04-28 22:15 | -20.58966 | -41.61769 | 34132 ft | 465 kts | 206° |
| 2026-04-28 22:16 | -20.64885 | -41.64528 | 34127 ft | 464 kts | 206° |
| 2026-04-28 22:16 | -20.70802 | -41.67293 | 34124 ft | 464 kts | 206° |
| 2026-04-28 22:17 | -20.76717 | -41.70052 | 34123 ft | 464 kts | 206° |
| 2026-04-28 22:17 | -20.82628 | -41.72808 | 34109 ft | 463 kts | 206° |
| 2026-04-28 22:18 | -20.88527 | -41.75567 | 34107 ft | 463 kts | 206° |
| 2026-04-28 22:18 | -20.94428 | -41.78326 | 34096 ft | 462 kts | 206° |
| 2026-04-28 22:19 | -21.00325 | -41.81079 | 34095 ft | 463 kts | 207° |
| 2026-04-28 22:19 | -21.06221 | -41.83836 | 34097 ft | 462 kts | 207° |
| 2026-04-28 22:20 | -21.12116 | -41.86599 | 34087 ft | 462 kts | 207° |
| 2026-04-28 22:20 | -21.18008 | -41.89362 | 34092 ft | 462 kts | 207° |
| 2026-04-28 22:21 | -21.23899 | -41.92133 | 34093 ft | 462 kts | 207° |
| 2026-04-28 22:21 | -21.29789 | -41.94903 | 34076 ft | 462 kts | 207° |
| 2026-04-28 22:22 | -21.35680 | -41.97669 | 34075 ft | 462 kts | 207° |
| 2026-04-28 22:22 | -21.41572 | -42.00434 | 34073 ft | 462 kts | 207° |
| 2026-04-28 22:22 | -21.44503 | -42.01814 | 33474 ft | 460 kts | 207° |
| 2026-04-28 22:23 | -21.47404 | -42.03183 | 32531 ft | 463 kts | 207° |
| 2026-04-28 22:23 | -21.50363 | -42.04582 | 31566 ft | 467 kts | 207° |
| 2026-04-28 22:23 | -21.53352 | -42.05996 | 30612 ft | 472 kts | 208° |
| 2026-04-28 22:23 | -21.56374 | -42.07424 | 29526 ft | 477 kts | 207° |
| 2026-04-28 22:24 | -21.59421 | -42.08861 | 28341 ft | 481 kts | 207° |
| 2026-04-28 22:24 | -21.62499 | -42.10312 | 27198 ft | 485 kts | 207° |
| 2026-04-28 22:24 | -21.65600 | -42.11776 | 26034 ft | 488 kts | 207° |
| 2026-04-28 22:24 | -21.68718 | -42.13252 | 24873 ft | 491 kts | 207° |
| 2026-04-28 22:25 | -21.71854 | -42.14740 | 23837 ft | 492 kts | 207° |
| 2026-04-28 22:25 | -21.74973 | -42.16215 | 22964 ft | 487 kts | 207° |
| 2026-04-28 22:25 | -21.78057 | -42.17670 | 22138 ft | 481 kts | 207° |
| 2026-04-28 22:25 | -21.81014 | -42.19281 | 21354 ft | 472 kts | 215° |
| 2026-04-28 22:26 | -21.83635 | -42.21346 | 20588 ft | 463 kts | 224° |
| 2026-04-28 22:26 | -21.85875 | -42.23791 | 19872 ft | 455 kts | 233° |
| 2026-04-28 22:26 | -21.87712 | -42.26539 | 19333 ft | 452 kts | 240° |
| 2026-04-28 22:26 | -21.89434 | -42.29369 | 19128 ft | 452 kts | 239° |
| 2026-04-28 22:27 | -21.91175 | -42.32195 | 19068 ft | 452 kts | 239° |
| 2026-04-28 22:27 | -21.92923 | -42.35014 | 19091 ft | 453 kts | 239° |
| 2026-04-28 22:27 | -21.94679 | -42.37838 | 19087 ft | 454 kts | 239° |
| 2026-04-28 22:27 | -21.96430 | -42.40662 | 19090 ft | 453 kts | 239° |
| 2026-04-28 22:28 | -21.98177 | -42.43495 | 19104 ft | 454 kts | 239° |
| 2026-04-28 22:28 | -21.99912 | -42.46322 | 19097 ft | 452 kts | 239° |
| 2026-04-28 22:28 | -22.01644 | -42.49150 | 19098 ft | 452 kts | 239° |
| 2026-04-28 22:28 | -22.03376 | -42.51980 | 19097 ft | 452 kts | 239° |
| 2026-04-28 22:29 | -22.05108 | -42.54808 | 19104 ft | 452 kts | 239° |
| 2026-04-28 22:29 | -22.06840 | -42.57634 | 19105 ft | 452 kts | 239° |
| 2026-04-28 22:29 | -22.08548 | -42.60421 | 19106 ft | 452 kts | 239° |
| 2026-04-28 22:29 | -22.10282 | -42.63244 | 19116 ft | 452 kts | 239° |
| 2026-04-28 22:30 | -22.12017 | -42.66070 | 19120 ft | 452 kts | 239° |
| 2026-04-28 22:30 | -22.13753 | -42.68900 | 19118 ft | 452 kts | 239° |
| 2026-04-28 22:30 | -22.15496 | -42.71742 | 18645 ft | 445 kts | 239° |
| 2026-04-28 22:30 | -22.17171 | -42.74481 | 17922 ft | 442 kts | 239° |
| 2026-04-28 22:31 | -22.18853 | -42.77236 | 17206 ft | 438 kts | 239° |
| 2026-04-28 22:31 | -22.20520 | -42.79966 | 16521 ft | 434 kts | 239° |
| 2026-04-28 22:31 | -22.22170 | -42.82670 | 15865 ft | 430 kts | 238° |
| 2026-04-28 22:31 | -22.23809 | -42.85356 | 15331 ft | 427 kts | 238° |
| 2026-04-28 22:32 | -22.25441 | -42.88036 | 15133 ft | 427 kts | 238° |
| 2026-04-28 22:32 | -22.27074 | -42.90713 | 15104 ft | 427 kts | 238° |
| 2026-04-28 22:32 | -22.28706 | -42.93395 | 15082 ft | 427 kts | 238° |
| 2026-04-28 22:32 | -22.30333 | -42.96070 | 14848 ft | 425 kts | 238° |
| 2026-04-28 22:33 | -22.31950 | -42.98729 | 14615 ft | 423 kts | 238° |
| 2026-04-28 22:33 | -22.33559 | -43.01380 | 14382 ft | 421 kts | 238° |
| 2026-04-28 22:33 | -22.35155 | -43.04006 | 13845 ft | 416 kts | 237° |
| 2026-04-28 22:33 | -22.36737 | -43.06606 | 13178 ft | 412 kts | 238° |
| 2026-04-28 22:34 | -22.38302 | -43.09177 | 12575 ft | 406 kts | 238° |
| 2026-04-28 22:34 | -22.39842 | -43.11711 | 11972 ft | 401 kts | 238° |
| 2026-04-28 22:34 | -22.41365 | -43.14219 | 11448 ft | 395 kts | 238° |
| 2026-04-28 22:34 | -22.42838 | -43.16646 | 11313 ft | 378 kts | 238° |
| 2026-04-28 22:35 | -22.44246 | -43.18967 | 11189 ft | 359 kts | 238° |
| 2026-04-28 22:35 | -22.45566 | -43.21139 | 11073 ft | 333 kts | 238° |
| 2026-04-28 22:35 | -22.46792 | -43.23158 | 10920 ft | 311 kts | 238° |
| 2026-04-28 22:35 | -22.47956 | -43.25081 | 10504 ft | 302 kts | 238° |
| 2026-04-28 22:36 | -22.49091 | -43.26959 | 10249 ft | 297 kts | 238° |
| 2026-04-28 22:36 | -22.50220 | -43.28830 | 10013 ft | 296 kts | 238° |
| 2026-04-28 22:36 | -22.51332 | -43.30672 | 9892 ft | 296 kts | 238° |
| 2026-04-28 22:36 | -22.52462 | -43.32540 | 9774 ft | 297 kts | 238° |
| 2026-04-28 22:37 | -22.53588 | -43.34401 | 9626 ft | 294 kts | 238° |
| 2026-04-28 22:37 | -22.54683 | -43.36212 | 9500 ft | 281 kts | 238° |
| 2026-04-28 22:37 | -22.55733 | -43.37946 | 9350 ft | 270 kts | 238° |
| 2026-04-28 22:37 | -22.56753 | -43.39632 | 9051 ft | 266 kts | 238° |
| 2026-04-28 22:38 | -22.57757 | -43.41297 | 8726 ft | 263 kts | 238° |
| 2026-04-28 22:38 | -22.58755 | -43.42955 | 8380 ft | 263 kts | 238° |
| 2026-04-28 22:38 | -22.59771 | -43.44597 | 8032 ft | 263 kts | 233° |
| 2026-04-28 22:38 | -22.61094 | -43.45954 | 7694 ft | 263 kts | 215° |
| 2026-04-28 22:39 | -22.62754 | -43.46836 | 7178 ft | 271 kts | 196° |
| 2026-04-28 22:39 | -22.64564 | -43.47092 | 7009 ft | 255 kts | 178° |
| 2026-04-28 22:39 | -22.66245 | -43.46786 | 6883 ft | 237 kts | 161° |
| 2026-04-28 22:39 | -22.67687 | -43.46052 | 6687 ft | 224 kts | 145° |
| 2026-04-28 22:40 | -22.68858 | -43.44978 | 6340 ft | 219 kts | 129° |
| 2026-04-28 22:40 | -22.69770 | -43.43667 | 5942 ft | 217 kts | 124° |
| 2026-04-28 22:40 | -22.70611 | -43.42401 | 5832 ft | 197 kts | 123° |
| 2026-04-28 22:40 | -22.71377 | -43.41249 | 5697 ft | 179 kts | 124° |
| 2026-04-28 22:41 | -22.72064 | -43.40215 | 5469 ft | 165 kts | 123° |
| 2026-04-28 22:41 | -22.72753 | -43.39174 | 4869 ft | 175 kts | 123° |
| 2026-04-28 22:41 | -22.73491 | -43.38060 | 4062 ft | 188 kts | 124° |
| 2026-04-28 22:41 | -22.74229 | -43.36952 | 3756 ft | 170 kts | 123° |
| 2026-04-28 22:42 | -22.74894 | -43.35949 | 3410 ft | 164 kts | 123° |
| 2026-04-28 22:42 | -22.75569 | -43.34929 | 2888 ft | 169 kts | 123° |
| 2026-04-28 22:42 | -22.76261 | -43.33883 | 2284 ft | 173 kts | 123° |
| 2026-04-28 22:42 | -22.76964 | -43.32826 | 1820 ft | 168 kts | 123° |
| 2026-04-28 22:43 | -22.77635 | -43.31814 | 1361 ft | 164 kts | 124° |
| 2026-04-28 22:43 | -22.78287 | -43.30832 | 1013 ft | 158 kts | 124° |
| 2026-04-28 22:43 | -22.78904 | -43.29905 | 832 ft | 147 kts | 124° |
| 2026-04-28 22:43 | -22.79482 | -43.29026 | 625 ft | 141 kts | 125° |
| 2026-04-28 22:44 | -22.80045 | -43.28175 | 495 ft | 138 kts | 126° |
| 2026-04-28 22:44 | -22.80601 | -43.27340 | 292 ft | 138 kts | 126° |
| 2026-04-28 22:44 | -22.81156 | -43.26501 | 121 ft | 137 kts | 126° |
| 2026-04-28 22:44 | -22.81675 | -43.25720 | 26 ft | 123 kts | 124° |
| 2026-04-28 22:45 | -22.82100 | -43.25076 | 26 ft | 78 kts | 126° |
| 2026-04-28 22:45 | -22.82323 | -43.24732 | 19 ft | 41 kts | 115° |
| 2026-04-28 22:45 | -22.82361 | -43.24544 | 19 ft | 35 kts | 94° |
| 2026-04-28 22:45 | -22.82277 | -43.24377 | 19 ft | 20 kts | 34° |
| 2026-04-28 22:46 | -22.82164 | -43.24299 | 21 ft | 19 kts | 11° |
| 2026-04-28 22:46 | -22.82084 | -43.24317 | 21 ft | 14 kts | 3° |
| 2026-04-28 22:46 | -22.81999 | -43.24326 | 21 ft | 12 kts | 353° |
| 2026-04-28 22:46 | -22.81952 | -43.24332 | 21 ft | 0 kts | 353° |